Austin, Texas
Traffic Map
Current Weather Conditions
Austin, Texas
Clear
Clear
73°
Feels Like: 73°
Wind Chill: 73° Ceiling: Unl
Heat Index: 73° Visibility: 10mi
Dew Point: 70° Wind: 3mph
Humidity: 90% Direction: 30° (NNE)
Pressure: 30.03in Gusts: 0mph
Raw Report DataKATT 281151Z AUTO 03003KT 10SM CLR 23/21 A3003 RMK AO2 SLP154 T02280211 10261 20228 53008
Traffic Incident Summary
Active as of:
Severity:
Category:
InformationThere was an issue retrieving the traffic information for this location. Please try a different location or try again shortly.
Advertisements
Track Severe Weather on mobile